Katy, TX

3:53 PM CST on January 29, 2015 (GMT -0600)
Waterstone | Change Station
CLOSE
Current Station
Personal Weather Station
Location: Katy, TX
Elevation: 135 ft
Nearby Weather Stations

Elev 135 ft 29.82 °N, 95.76 °W | Updated 10 minutes ago

Partly Cloudy
Partly Cloudy
76.6 °F
Feels Like 78 °F
N
2.7
Wind Variable Wind from West

Today
High -- | Low -- °F
--% Chance of Precip.
Yesterday
High -- | Low -- °F
Precip. -- in
7:14 AM 5:57 PM
Waxing Gibbous, 77% visible
Pressure 30.20 in
Visibility 10.0 miles
Clouds Few 3900 ft
Heat Index 78 °F
Dew Point 63 °F
Humidity 63%
Rainfall 0.00 in
Snow Depth Not available.
UV 3 out of 12
Pollen 7.00 out of 12
Air Quality Not available.
Flu Activity Not available.
METAR KSGR 292053Z AUTO 26007KT 10SM FEW039 24/13 A3019 RMK AO2 SLP226 T02390133 58012

More Conditions Fewer Conditions

Pressure 30.20 in
Visibility 10.0 miles
Clouds Few 3900 ft
Heat Index 78 °F
Dew Point 63 °F
Humidity 63%
Rainfall 0.00 in
Snow Depth Not available.
UV 3 out of 12
Pollen 7.00 out of 12
Air Quality Not available.
Flu Activity Not available.
METAR KSGR 292053Z AUTO 26007KT 10SM FEW039 24/13 A3019 RMK AO2 SLP226 T02390133 58012

More Conditions Fewer Conditions

10-Day Weather Forecast

Almanac

Astronomy

Jan. 29, 2015 Rise Set
Actual Time
Civil Twilight
Nautical Twilight
Astronomical Twilight
Moon
Length of Visible Light
Length of Day
Tomorrow will be .
, % of the Moon is Illuminated

Today's Extremes

State Highs State Lows

Community

WunderPhotos

Upload Photos

1,791,615 photos uploaded!

WunderBlogs® & News

Nearby

Air Quality

  Air Quality AQ Index Pollutant
Not available.

Snow Depth

Station Depth Elevation

Earthquake Activity

City Distance Mag. Time & Date
Minimum magnitude displayed is 2.5.

Coastal Water Temperatures

Place Temperature

Nearby Weather Stations